Warning: A non-numeric value encountered in /customers/b/7/9/khm.no/httpd.www/weather28/metar/wsMetarTxt.php on line 609
Note: Wind direction arrow are unfortunately not working and shows just north


Skjærhalden gjestehavn  Skjærhalden gjestehavn


Lynradar Scandinavia more information blitzortung!


Rain radar more information rain snow radar


Besøk Våre Andre vær websider:

Template documentation
and downloads

And another site



Ingen spesiell oppmerksomhet om været er påkrevd.    Det er ingen Vær-advarsler

Værrapport fra de nærmeste flyplassene

Warning: A non-numeric value encountered in /customers/b/7/9/khm.no/httpd.www/weather28/metar/wsMetarTxt.php on line 609 Warning: A non-numeric value encountered in /customers/b/7/9/khm.no/httpd.www/weather28/metar/metarDisplay.php on line 166 Warning: A non-numeric value encountered in /customers/b/7/9/khm.no/httpd.www/weather28/metar/wsMetarTxt.php on line 609 Warning: A non-numeric value encountered in /customers/b/7/9/khm.no/httpd.www/weather28/metar/wsMetarTxt.php on line 609 Warning: A non-numeric value encountered in /customers/b/7/9/khm.no/httpd.www/weather28/metar/wsMetarTxt.php on line 609 Warning: A non-numeric value encountered in /customers/b/7/9/khm.no/httpd.www/weather28/metar/metarDisplay.php on line 166
   
ENRY - Rygge
Oppdatert: Nov 20 2018 2:20 pm
For det meste Overskyet  
For det meste Overskyet  
   Vind: Nord 4.1 m/s
Vind: Nord 4.1 m/s
Temperatur: -1°C
Wind Chill: -6°C
Duggpunkt: -4°C
Luftfuktighet: 80%
Lufttrykk: 1033 hPa
Skyer: For det meste Overskyet
Sikt: More than 10 km
Detaljer skyer: For det meste Overskyet 1100 ft
ENRY 201320Z 36008KT 9999 BKN011 M01/M04 Q1033 NOSIG
ENTO - Sandefjord
Oppdatert: Nov 20 2018 2:20 pm
Overskyet  
Overskyet  
   Vind: Nord 5.1 m/s
Vind: Nord 5.1 m/s
Temperatur: -1°C
Wind Chill: -6°C
Duggpunkt: -3°C
Luftfuktighet: 86%
Lufttrykk: 1032 hPa
Skyer: Overskyet
Sikt: More than 10 km
Detaljer skyer: Partly Cloudy 1200 ft,
Overskyet 1800 ft
ENTO 201320Z 36010KT 9999 SCT012 OVC018 M01/M03 Q1032
ENSN - Skien
Oppdatert: Nov 9 2015 9:50 am
Oppdatert, se klokkeslett
Klart  
Klart  
   Vind: SSV 5.1 m/s<br />Gust to 5.1 m/s
Vind: SSV 5.1 m/s
Gust to 5.1 m/s
Temperatur: 7°C
Wind Chill: 4°C
Duggpunkt: 3°C
Luftfuktighet: 76%
Lufttrykk: 1000 hPa
Sikt: More than 10 km
Detaljer skyer: Klart
ENSN 090850Z 20010G22KT 150V240 CAVOK 07/03 Q1000
ENGM - Oslo
Oppdatert: Nov 20 2018 2:20 pm
For det meste Overskyet  
For det meste Overskyet  
   Vind: NNØ 3.1 m/s
Vind: NNØ 3.1 m/s
Temperatur: -2°C
Wind Chill: -6°C
Duggpunkt: -4°C
Luftfuktighet: 86%
Lufttrykk: 1032 hPa
Skyer: For det meste Overskyet
Sikt: More than 10 km
Detaljer skyer: For det meste Overskyet 1100 ft
ENGM 201320Z 03006KT 9999 BKN011 M02/M04 Q1032 NOSIG
ESOK - Karlstad
Oppdatert: Nov 20 2018 2:20 pm
For det meste Overskyet  
For det meste Overskyet  
   Vind: Nord 2.6 m/s
Vind: Nord 2.6 m/s
Temperatur: -1°C
Wind Chill: -4°C
Duggpunkt: -3°C
Luftfuktighet: 86%
Lufttrykk: 1032 hPa
Skyer: For det meste Overskyet
Sikt: More than 10 km
Detaljer skyer: For det meste Overskyet 1000 ft
ESOK 201320Z 36005KT 9999 BKN010 M01/M03 Q1032
ESST - Torsby
Oppdatert: Nov 20 2018 2:20 pm
Klart  
Klart  
   Vind: VNV 2.1 m/s
Vind: VNV 2.1 m/s
Temperatur: -3°C
Wind Chill: -6°C
Duggpunkt: -5°C
Luftfuktighet: 86%
Lufttrykk: 1033 hPa
Skyer: Klart
Sikt: More than 10 km
Detaljer skyer: Klart
ESST 201320Z AUTO 29004KT 9999 NCD M03/M05 Q1033

Script utviklet av  Saratoga-weather.org Tilpasset for tamplaten av  Weerstation Leuven

Du finner stasjonens værinfo også på:

European Weather Network